DFSCM EDLT-ZZZZ
Flight info
| Callsign | DFSCM |
|---|---|
| Flight time | N/A |
| Altitude | |
| Route | VFR |
| Aircraft | C208 |
Departure
| Time | 2026-05-04 14:29 |
|---|---|
| Airport | Münster-Telgte Airfield (EDLT) |
Arrival
| Time | N/A |
|---|---|
| Airport | ZZZZ |
| Time | Latitude | Longitude | Altitude | Speed | Heading |
|---|---|---|---|---|---|
| 2026-05-04 14:28 | 51.75679 | 7.70236 | 2852 ft | 174 kts | 194° |
| 2026-05-04 14:29 | 51.73316 | 7.69346 | 2170 ft | 174 kts | 194° |
| 2026-05-04 14:29 | 51.71069 | 7.68504 | 1994 ft | 155 kts | 193° |
| 2026-05-04 14:30 | 51.70038 | 7.68133 | 1987 ft | 148 kts | 193° |
| 2026-05-04 14:30 | 51.69036 | 7.67769 | 1988 ft | 148 kts | 193° |
| 2026-05-04 14:30 | 51.67049 | 7.67227 | 1993 ft | 143 kts | 183° |
| 2026-05-04 14:31 | 51.66058 | 7.67132 | 2029 ft | 142 kts | 185° |
| 2026-05-04 14:31 | 51.64087 | 7.66916 | 2040 ft | 142 kts | 185° |
| 2026-05-04 14:32 | 51.62103 | 7.66674 | 2039 ft | 143 kts | 185° |
| 2026-05-04 14:32 | 51.61114 | 7.66557 | 2046 ft | 144 kts | 185° |
| 2026-05-04 14:32 | 51.60112 | 7.66457 | 2043 ft | 142 kts | 185° |
| 2026-05-04 14:32 | 51.59136 | 7.66336 | 2041 ft | 141 kts | 185° |
| 2026-05-04 14:33 | 51.58174 | 7.66223 | 2046 ft | 140 kts | 185° |
| 2026-05-04 14:33 | 51.57206 | 7.66105 | 2047 ft | 141 kts | 186° |
| 2026-05-04 14:33 | 51.56223 | 7.65983 | 2050 ft | 143 kts | 186° |
| 2026-05-04 14:33 | 51.55228 | 7.65852 | 2049 ft | 143 kts | 186° |
| 2026-05-04 14:34 | 51.54242 | 7.65729 | 2040 ft | 141 kts | 185° |
| 2026-05-04 14:34 | 51.53272 | 7.65607 | 2051 ft | 140 kts | 185° |
| 2026-05-04 14:34 | 51.52629 | 7.65526 | 2045 ft | 139 kts | 185° |
| 2026-05-04 14:34 | 51.51658 | 7.65410 | 2037 ft | 140 kts | 185° |
| 2026-05-04 14:35 | 51.50689 | 7.65290 | 2053 ft | 139 kts | 185° |
| 2026-05-04 14:35 | 51.49382 | 7.65134 | 2042 ft | 143 kts | 185° |
| 2026-05-04 14:35 | 51.48395 | 7.65004 | 2054 ft | 143 kts | 185° |
| 2026-05-04 14:35 | 51.47726 | 7.64917 | 2043 ft | 142 kts | 185° |
| 2026-05-04 14:36 | 51.46746 | 7.64792 | 2045 ft | 141 kts | 185° |
| 2026-05-04 14:36 | 51.45768 | 7.64673 | 2042 ft | 141 kts | 185° |
| 2026-05-04 14:36 | 51.44800 | 7.64555 | 2059 ft | 141 kts | 185° |
| 2026-05-04 14:36 | 51.43875 | 7.64454 | 2439 ft | 135 kts | 184° |
| 2026-05-04 14:37 | 51.42909 | 7.64364 | 2881 ft | 141 kts | 184° |
| 2026-05-04 14:37 | 51.41911 | 7.64267 | 3315 ft | 146 kts | 185° |
| 2026-05-04 14:37 | 51.40891 | 7.64155 | 3761 ft | 148 kts | 185° |
| 2026-05-04 14:37 | 51.39855 | 7.64040 | 4188 ft | 149 kts | 183° |
| 2026-05-04 14:38 | 51.38824 | 7.63930 | 4621 ft | 147 kts | 185° |
| 2026-05-04 14:38 | 51.37804 | 7.63820 | 5053 ft | 147 kts | 184° |